Time;durP1;ratioP1;P1;durP2;ratioP2;P2;SDS_P1;SDS_P2;PMS_P1;PMS_P2;Temp;Humidity;BMP_temperature;BMP_pressure;BME280_temperature;BME280_humidity;BME280_pressure;Samples;Min_cycle;Max_cycle;Signal;HPM_P1;HPM_P2
2022/05/08 00:01:44;;;;;;;5.35;4.85;;;13.60;99.90;;;;;;5045784;28;20205;-77
2022/05/08 00:04:12;;;;;;;5.82;5.22;;;13.50;99.90;;;;;;5042620;28;20192;-77
2022/05/08 00:06:40;;;;;;;5.03;4.63;;;13.50;99.90;;;;;;5048006;28;20230;-77
2022/05/08 00:09:07;;;;;;;5.07;4.68;;;13.50;99.90;;;;;;5048722;28;20198;-77
2022/05/08 00:11:34;;;;;;;4.90;4.50;;;13.50;99.90;;;;;;5044428;28;20223;-77
2022/05/08 00:14:01;;;;;;;5.70;5.25;;;13.50;99.90;;;;;;5041478;28;20565;-77
2022/05/08 00:16:28;;;;;;;5.60;5.10;;;13.50;99.90;;;;;;5044168;28;20230;-77
2022/05/08 00:18:55;;;;;;;5.30;4.90;;;13.50;99.90;;;;;;5042938;28;20658;-77
2022/05/08 00:21:23;;;;;;;5.68;5.18;;;13.50;99.90;;;;;;5044896;28;20230;-78
2022/05/08 00:23:50;;;;;;;5.95;5.45;;;13.50;99.90;;;;;;5050783;28;20195;-77
2022/05/08 00:26:18;;;;;;;6.07;5.57;;;13.50;99.90;;;;;;5047923;28;20219;-79
2022/05/08 00:28:45;;;;;;;6.70;6.10;;;13.40;99.90;;;;;;5044875;28;20290;-77
2022/05/08 00:31:12;;;;;;;6.60;6.10;;;13.40;99.90;;;;;;5043701;28;20210;-80
2022/05/08 00:33:40;;;;;;;6.63;6.13;;;13.40;99.90;;;;;;5044627;28;20203;-77
2022/05/08 00:36:08;;;;;;;5.90;5.40;;;13.40;99.90;;;;;;5046197;28;20707;-77
2022/05/08 00:38:37;;;;;;;7.13;6.45;;;13.40;99.90;;;;;;5046604;28;20584;-78
2022/05/08 00:41:04;;;;;;;6.70;6.10;;;13.50;99.90;;;;;;5045875;28;20272;-77
2022/05/08 00:43:33;;;;;;;6.97;6.32;;;13.50;99.90;;;;;;5044352;28;20190;-75
2022/05/08 00:46:02;;;;;;;6.60;6.00;;;13.50;99.90;;;;;;5041252;28;20215;-76
2022/05/08 00:48:29;;;;;;;6.40;5.82;;;13.50;99.90;;;;;;5042391;28;20202;-77
2022/05/08 00:50:57;;;;;;;6.13;5.63;;;13.50;99.90;;;;;;5046210;28;20219;-77
2022/05/08 00:53:27;;;;;;;5.53;5.03;;;13.50;99.90;;;;;;5046251;28;20671;-77
2022/05/08 00:55:56;;;;;;;5.88;5.38;;;13.50;99.90;;;;;;5047154;28;20723;-77
2022/05/08 00:58:24;;;;;;;6.15;5.57;;;13.50;99.90;;;;;;5047607;28;20207;-77
2022/05/08 01:00:51;;;;;;;5.95;5.45;;;13.60;99.90;;;;;;5043112;28;20246;-78
2022/05/08 01:03:18;;;;;;;5.70;5.20;;;13.60;99.90;;;;;;5043609;28;20203;-78
2022/05/08 01:05:46;;;;;;;6.43;5.93;;;13.60;99.90;;;;;;5043096;28;20226;-76
2022/05/08 01:08:14;;;;;;;6.82;6.13;;;13.60;99.90;;;;;;5045962;28;20195;-77
2022/05/08 01:10:41;;;;;;;6.03;5.53;;;13.60;99.90;;;;;;5045363;28;20314;-77
2022/05/08 01:13:10;;;;;;;6.25;5.75;;;13.60;99.90;;;;;;5048459;28;20674;-77
2022/05/08 01:15:41;;;;;;;6.03;5.53;;;13.60;99.90;;;;;;5047389;28;20235;-78
2022/05/08 01:18:09;;;;;;;5.68;5.22;;;13.50;99.90;;;;;;5048907;28;20222;-78
2022/05/08 01:20:36;;;;;;;5.63;5.13;;;13.50;99.90;;;;;;5048644;28;20214;-78
2022/05/08 01:23:06;;;;;;;6.10;5.60;;;13.50;99.90;;;;;;5044076;28;20202;-76
2022/05/08 01:25:34;;;;;;;6.07;5.50;;;13.50;99.90;;;;;;5043131;28;20223;-77
2022/05/08 01:28:03;;;;;;;5.30;4.90;;;13.50;99.90;;;;;;5041597;28;20245;-79
2022/05/08 01:30:30;;;;;;;4.60;4.30;;;13.60;99.90;;;;;;5049689;28;20218;-77
2022/05/08 01:32:57;;;;;;;5.00;4.57;;;13.60;99.90;;;;;;5049493;28;20199;-77
2022/05/08 01:35:25;;;;;;;5.60;5.10;;;13.60;99.90;;;;;;5043654;28;20706;-78
2022/05/08 01:37:52;;;;;;;5.55;5.07;;;13.60;99.90;;;;;;5044170;28;20302;-78
2022/05/08 01:40:20;;;;;;;6.25;5.65;;;13.70;99.90;;;;;;5047656;28;20254;-77
2022/05/08 01:42:47;;;;;;;5.30;4.88;;;13.70;99.90;;;;;;5048156;28;20199;-78
2022/05/08 01:45:14;;;;;;;5.88;5.38;;;13.70;99.90;;;;;;5053603;28;20268;-77
2022/05/08 01:50:27;;;;;;;5.90;5.40;;;13.70;99.90;;;;;;5049338;28;20288;-79
2022/05/08 01:52:53;;;;;;;5.70;5.30;;;13.60;99.90;;;;;;5050428;28;20195;-76
2022/05/08 01:55:22;;;;;;;5.75;5.35;;;13.60;99.90;;;;;;5049736;28;20220;-77
2022/05/08 01:57:49;;;;;;;5.97;5.47;;;13.60;99.90;;;;;;5051921;28;20219;-78
2022/05/08 02:00:17;;;;;;;5.28;4.88;;;13.60;99.90;;;;;;5051060;28;20219;-79
2022/05/08 02:02:48;;;;;;;7.03;6.43;;;13.60;99.90;;;;;;5044224;28;20214;-77
2022/05/08 02:05:16;;;;;;;6.70;6.10;;;13.60;99.90;;;;;;5050246;28;20237;-78
2022/05/08 02:07:44;;;;;;;6.20;5.70;;;13.60;99.90;;;;;;5051297;28;20298;-78
2022/05/08 02:10:11;;;;;;;5.90;5.40;;;13.60;99.90;;;;;;5048264;28;20309;-78
2022/05/08 02:12:40;;;;;;;6.60;6.07;;;13.60;99.90;;;;;;5040608;28;20211;-78
2022/05/08 02:15:09;;;;;;;6.68;6.07;;;13.60;99.90;;;;;;5052635;28;20280;-77
2022/05/08 02:17:36;;;;;;;6.38;5.78;;;13.50;99.90;;;;;;5037796;28;20226;-77
2022/05/08 02:20:06;;;;;;;5.70;5.20;;;13.50;99.90;;;;;;5052820;28;20222;-77
2022/05/08 02:22:33;;;;;;;5.65;5.25;;;13.60;99.90;;;;;;5055740;28;20199;-76
2022/05/08 02:25:00;;;;;;;5.32;4.93;;;13.60;99.90;;;;;;5054026;28;20231;-78
2022/05/08 02:27:27;;;;;;;5.18;4.78;;;13.60;99.90;;;;;;5051238;28;20195;-78
2022/05/08 02:29:55;;;;;;;6.13;5.63;;;13.50;99.90;;;;;;5050553;28;20257;-78
2022/05/08 02:32:22;;;;;;;5.72;5.32;;;13.50;99.90;;;;;;5052994;28;20199;-78
2022/05/08 02:34:49;;;;;;;5.97;5.47;;;13.50;99.90;;;;;;5050683;28;20218;-78
2022/05/08 02:37:16;;;;;;;5.75;5.25;;;13.50;99.90;;;;;;5050537;28;20273;-79
2022/05/08 02:39:43;;;;;;;6.13;5.60;;;13.50;99.90;;;;;;5049705;28;20202;-78
2022/05/08 02:42:12;;;;;;;5.80;5.32;;;13.50;99.90;;;;;;5046995;28;20615;-78
2022/05/08 02:44:39;;;;;;;6.55;6.05;;;13.50;99.90;;;;;;5042340;28;20198;-78
2022/05/08 02:47:07;;;;;;;6.00;5.50;;;13.50;99.90;;;;;;5044686;28;20629;-77
2022/05/08 02:49:35;;;;;;;5.68;5.18;;;13.50;99.90;;;;;;5046709;28;20245;-76
2022/05/08 02:52:02;;;;;;;6.05;5.55;;;13.50;99.90;;;;;;5046090;28;20216;-80
2022/05/08 02:54:29;;;;;;;5.68;5.25;;;13.50;99.90;;;;;;5047349;28;20659;-77
2022/05/08 02:59:40;;;;;;;4.78;4.47;;;13.50;99.90;;;;;;5048016;28;20289;-78
2022/05/08 03:02:09;;;;;;;5.55;5.05;;;13.50;99.90;;;;;;5051287;28;20218;-77
2022/05/08 03:04:37;;;;;;;5.68;5.18;;;13.50;99.90;;;;;;5050716;28;20255;-78
2022/05/08 03:07:04;;;;;;;6.07;5.57;;;13.50;99.90;;;;;;5046269;28;20208;-78
2022/05/08 03:09:31;;;;;;;5.78;5.28;;;13.50;99.90;;;;;;5051724;28;20686;-77
2022/05/08 03:11:58;;;;;;;5.50;5.10;;;13.50;99.90;;;;;;5043673;28;20219;-77
2022/05/08 03:14:28;;;;;;;6.28;5.75;;;13.50;99.90;;;;;;5049454;28;20195;-77
2022/05/08 03:16:55;;;;;;;6.05;5.55;;;13.50;99.90;;;;;;5040474;28;20466;-79
2022/05/08 03:19:25;;;;;;;6.47;5.88;;;13.50;99.90;;;;;;5049029;28;20289;-77
2022/05/08 03:21:52;;;;;;;5.82;5.32;;;13.50;99.90;;;;;;5048866;28;20308;-78
2022/05/08 03:24:19;;;;;;;5.57;5.07;;;13.50;99.90;;;;;;5051611;28;20199;-78
2022/05/08 03:26:46;;;;;;;5.30;4.90;;;13.50;99.90;;;;;;5048609;28;20231;-77
2022/05/08 03:29:13;;;;;;;6.05;5.40;;;13.50;99.90;;;;;;5046903;28;20203;-76
2022/05/08 03:31:40;;;;;;;4.93;4.53;;;13.50;99.90;;;;;;5047831;28;20224;-77
2022/05/08 03:34:07;;;;;;;5.75;5.25;;;13.50;99.90;;;;;;5051313;28;20206;-78
2022/05/08 03:36:36;;;;;;;6.15;5.65;;;13.50;99.90;;;;;;5051646;28;20214;-76
2022/05/08 03:39:03;;;;;;;5.40;5.00;;;13.50;99.90;;;;;;5052913;28;20237;-77
2022/05/08 03:41:30;;;;;;;6.28;5.00;;;13.50;99.90;;;;;;5048214;28;20223;-78
2022/05/08 03:43:57;;;;;;;4.85;4.45;;;13.50;99.90;;;;;;5046674;28;20586;-77
2022/05/08 03:46:25;;;;;;;5.35;4.95;;;13.50;99.90;;;;;;5047968;28;20226;-78
2022/05/08 03:48:52;;;;;;;5.18;4.65;;;13.50;99.90;;;;;;5050469;28;20682;-79
2022/05/08 03:51:19;;;;;;;5.03;4.63;;;13.50;99.90;;;;;;5048621;28;20223;-77
2022/05/08 03:53:47;;;;;;;4.35;3.97;;;13.50;99.90;;;;;;5043224;28;20303;-79
2022/05/08 03:56:14;;;;;;;6.10;5.50;;;13.50;99.90;;;;;;5049425;28;20225;-78
2022/05/08 03:58:41;;;;;;;5.03;4.57;;;13.50;99.90;;;;;;5052344;28;20228;-78
2022/05/08 04:01:08;;;;;;;5.15;4.75;;;13.50;99.90;;;;;;5047478;28;20226;-76
2022/05/08 04:03:36;;;;;;;5.05;4.65;;;13.50;99.90;;;;;;5050414;28;20198;-77
2022/05/08 04:06:03;;;;;;;5.53;5.13;;;13.50;99.90;;;;;;5044328;28;20215;-77
2022/05/08 04:08:32;;;;;;;5.68;5.18;;;13.50;99.90;;;;;;5048482;28;20282;-78
2022/05/08 04:11:01;;;;;;;6.32;5.82;;;13.50;99.90;;;;;;5043541;28;20211;-78
2022/05/08 04:13:28;;;;;;;5.75;5.25;;;13.40;99.90;;;;;;5048465;28;20652;-77
2022/05/08 04:18:36;;;;;;;6.05;5.55;;;13.40;99.90;;;;;;5034183;28;20686;-77
2022/05/08 04:21:03;;;;;;;6.07;5.57;;;13.40;99.90;;;;;;5046807;28;20222;-79
2022/05/08 04:26:16;;;;;;;5.80;5.40;;;13.40;99.90;;;;;;5046654;28;20721;-78
2022/05/08 04:28:43;;;;;;;6.00;5.50;;;13.40;99.90;;;;;;5041310;28;20191;-78
2022/05/08 04:31:10;;;;;;;4.90;4.50;;;13.50;99.90;;;;;;5046480;28;20210;-78
2022/05/08 04:33:37;;;;;;;5.53;5.10;;;13.50;99.90;;;;;;5047940;28;20210;-77
2022/05/08 04:36:04;;;;;;;4.95;4.53;;;13.50;99.90;;;;;;5047397;28;20214;-78
2022/05/08 04:38:32;;;;;;;5.00;4.60;;;13.50;99.90;;;;;;5042389;28;20226;-77
2022/05/08 04:40:59;;;;;;;5.03;4.63;;;13.60;99.90;;;;;;5048916;28;20272;-78
2022/05/08 04:43:27;;;;;;;5.20;4.80;;;13.50;99.90;;;;;;5046474;28;20655;-79
2022/05/08 04:45:54;;;;;;;4.30;4.00;;;13.60;99.90;;;;;;5044803;28;20226;-78
2022/05/08 04:48:21;;;;;;;5.05;4.65;;;13.60;99.90;;;;;;5045870;28;20197;-78
2022/05/08 04:50:48;;;;;;;5.03;4.63;;;13.60;99.90;;;;;;5041930;28;20218;-78
2022/05/08 04:53:15;;;;;;;5.20;4.72;;;13.60;99.90;;;;;;5047202;28;20191;-78
2022/05/08 04:55:42;;;;;;;5.22;4.82;;;13.60;99.90;;;;;;5047371;28;20649;-77
2022/05/08 04:58:09;;;;;;;5.40;5.00;;;13.60;99.90;;;;;;5049674;28;20223;-78
2022/05/08 05:00:38;;;;;;;5.38;4.88;;;13.50;99.90;;;;;;5044710;28;20234;-76
2022/05/08 05:03:05;;;;;;;5.43;5.03;;;13.50;99.90;;;;;;5046080;28;20207;-78
2022/05/08 05:05:34;;;;;;;5.38;4.95;;;13.60;99.90;;;;;;5046789;28;20223;-78
2022/05/08 05:08:01;;;;;;;5.13;4.72;;;13.60;99.90;;;;;;5058231;22;20321;-79
2022/05/08 05:10:28;;;;;;;5.10;4.70;;;13.60;99.90;;;;;;5039441;28;20195;-79
2022/05/08 05:12:55;;;;;;;4.57;4.28;;;13.60;99.90;;;;;;5038894;28;20190;-81
2022/05/08 05:15:24;;;;;;;4.93;4.53;;;13.70;99.90;;;;;;5041136;28;20223;-79
2022/05/08 05:17:52;;;;;;;4.85;4.45;;;13.70;99.90;;;;;;5034365;28;20611;-79
2022/05/08 05:20:19;;;;;;;4.85;4.45;;;13.70;99.90;;;;;;5028079;28;20204;-80
2022/05/08 05:22:46;;;;;;;4.80;4.40;;;13.70;99.90;;;;;;5026062;28;20668;-81
2022/05/08 05:25:14;;;;;;;5.45;5.00;;;13.70;99.90;;;;;;5022287;28;20195;-78
2022/05/08 05:27:41;;;;;;;4.72;4.43;;;13.70;99.90;;;;;;5019646;28;20239;-78
2022/05/08 05:30:09;;;;;;;4.95;4.55;;;13.60;99.90;;;;;;5026700;28;20196;-81
2022/05/08 05:32:36;;;;;;;5.15;4.75;;;13.60;99.90;;;;;;5024751;28;20231;-80
2022/05/08 05:35:05;;;;;;;5.93;4.65;;;13.70;99.90;;;;;;5024377;28;20208;-78
2022/05/08 05:37:32;;;;;;;4.40;4.10;;;13.70;99.90;;;;;;5025855;28;20317;-77
2022/05/08 05:39:59;;;;;;;4.47;4.07;;;13.70;99.90;;;;;;5021811;28;20207;-80
2022/05/08 05:42:26;;;;;;;4.35;4.05;;;13.80;99.90;;;;;;5023682;28;20215;-77
2022/05/08 05:44:54;;;;;;;4.72;4.43;;;13.80;99.90;;;;;;5021239;28;20195;-79
2022/05/08 05:50:08;;;;;;;3.83;3.53;;;13.80;99.90;;;;;;5026109;28;20596;-78
2022/05/08 05:52:35;;;;;;;4.68;4.28;;;13.90;99.90;;;;;;5027871;28;20239;-79
2022/05/08 05:55:04;;;;;;;4.82;4.43;;;13.90;99.90;;;;;;5021788;28;20420;-79
2022/05/08 05:57:31;;;;;;;4.60;4.30;;;14.00;99.90;;;;;;5015658;28;20373;-79
2022/05/08 05:59:58;;;;;;;5.10;4.70;;;14.00;99.90;;;;;;5022883;28;20245;-80
2022/05/08 06:02:25;;;;;;;4.95;4.55;;;14.10;99.90;;;;;;5022198;28;20232;-80
2022/05/08 06:04:52;;;;;;;5.20;4.80;;;14.00;99.90;;;;;;5024170;28;20293;-79
2022/05/08 06:07:21;;;;;;;5.18;4.80;;;14.00;99.90;;;;;;5024419;28;20711;-79
2022/05/08 06:09:48;;;;;;;5.15;4.75;;;14.10;99.90;;;;;;5021220;28;20706;-79
2022/05/08 06:12:16;;;;;;;5.28;4.88;;;14.10;99.90;;;;;;5025891;28;20214;-76
2022/05/08 06:14:46;;;;;;;13.65;5.20;;;14.20;99.90;;;;;;5027844;28;20199;-78
2022/05/08 06:17:13;;;;;;;5.47;5.07;;;14.20;99.90;;;;;;5026476;28;20235;-80
2022/05/08 06:19:40;;;;;;;5.75;5.35;;;14.20;99.90;;;;;;5027296;28;20436;-78
2022/05/08 06:22:07;;;;;;;5.65;5.25;;;14.20;99.90;;;;;;5028430;28;20233;-78
2022/05/08 06:24:38;;;;;;;6.28;5.78;;;14.10;99.90;;;;;;5024892;28;20258;-79
2022/05/08 06:27:05;;;;;;;6.22;5.72;;;14.10;99.90;;;;;;5030843;28;20250;-79
2022/05/08 06:29:33;;;;;;;6.28;5.80;;;14.10;99.90;;;;;;5021273;28;20196;-78
2022/05/08 06:32:00;;;;;;;8.48;7.75;;;14.10;99.90;;;;;;5026394;28;20215;-79
2022/05/08 06:34:27;;;;;;;6.65;6.07;;;14.00;99.90;;;;;;5021671;28;20204;-81
2022/05/08 06:36:55;;;;;;;6.25;5.75;;;14.00;99.90;;;;;;5020318;28;20320;-78
2022/05/08 06:39:22;;;;;;;6.63;6.13;;;13.90;99.90;;;;;;5027209;28;20250;-77
2022/05/08 06:41:50;;;;;;;6.70;6.10;;;13.90;99.90;;;;;;5033515;28;20231;-76
2022/05/08 06:44:17;;;;;;;6.43;5.93;;;13.90;99.90;;;;;;5031484;28;20203;-81
2022/05/08 06:46:44;;;;;;;6.50;5.95;;;13.90;99.90;;;;;;5026122;28;20223;-77
2022/05/08 06:49:12;;;;;;;6.53;6.03;;;13.90;99.90;;;;;;5029993;28;20268;-78
2022/05/08 06:51:39;;;;;;;6.95;6.35;;;14.00;99.90;;;;;;5025106;28;20767;-80
2022/05/08 06:54:06;;;;;;;7.28;6.65;;;14.10;99.90;;;;;;5028037;28;20211;-79
2022/05/08 06:56:35;;;;;;;6.78;6.22;;;14.10;99.90;;;;;;5024898;28;20323;-79
2022/05/08 07:01:48;;;;;;;6.10;5.60;;;14.20;99.90;;;;;;5023159;28;20281;-78
2022/05/08 07:04:15;;;;;;;5.57;5.18;;;14.20;99.90;;;;;;5028249;28;20199;-78
2022/05/08 07:06:42;;;;;;;6.15;5.65;;;14.30;99.90;;;;;;5023501;28;20782;-78
2022/05/08 07:09:09;;;;;;;5.85;5.45;;;14.30;99.90;;;;;;5026379;28;20191;-77
2022/05/08 07:11:38;;;;;;;6.50;6.00;;;14.30;99.90;;;;;;5025566;28;20223;-79
2022/05/08 07:14:06;;;;;;;6.55;6.03;;;14.20;99.90;;;;;;5026084;28;20196;-78
2022/05/08 07:16:33;;;;;;;6.60;6.00;;;14.20;99.90;;;;;;5023403;28;20223;-78
2022/05/08 07:19:00;;;;;;;7.32;6.72;;;14.20;99.90;;;;;;5027269;28;20226;-78
2022/05/08 07:21:27;;;;;;;5.82;5.32;;;14.10;99.90;;;;;;5026614;28;20231;-81
2022/05/08 07:23:55;;;;;;;5.75;5.35;;;14.10;99.90;;;;;;5026939;28;20207;-79
2022/05/08 07:26:22;;;;;;;5.72;5.32;;;14.10;99.90;;;;;;5027398;28;20212;-80
2022/05/08 07:28:49;;;;;;;5.28;4.88;;;14.00;99.90;;;;;;5026092;28;20195;-78
2022/05/08 07:31:17;;;;;;;5.93;5.50;;;14.00;99.90;;;;;;5030121;28;20657;-78
2022/05/08 07:33:45;;;;;;;5.35;4.95;;;14.10;99.90;;;;;;5029830;28;20198;-78
2022/05/08 07:36:14;;;;;;;4.53;4.22;;;14.20;99.90;;;;;;5030177;28;20662;-78
2022/05/08 07:38:42;;;;;;;5.13;4.72;;;14.20;99.90;;;;;;5019388;28;20230;-81
2022/05/08 07:41:11;;;;;;;5.50;5.00;;;14.40;99.90;;;;;;5033851;28;20207;-77
2022/05/08 07:43:38;;;;;;;5.07;4.70;;;14.50;99.90;;;;;;5028802;28;20227;-80
2022/05/08 07:46:06;;;;;;;6.00;5.47;;;14.70;99.90;;;;;;5023895;28;20203;-81
2022/05/08 07:48:35;;;;;;;6.40;5.90;;;14.80;99.90;;;;;;5025898;28;20215;-79
2022/05/08 07:51:02;;;;;;;6.45;5.95;;;15.00;99.90;;;;;;5029983;28;20257;-78
2022/05/08 07:53:30;;;;;;;7.13;6.53;;;15.10;99.90;;;;;;5023612;28;20278;-78
2022/05/08 07:55:58;;;;;;;6.50;6.00;;;15.20;99.90;;;;;;5024203;28;20195;-78
2022/05/08 07:58:28;;;;;;;6.40;5.90;;;15.30;99.90;;;;;;5022319;28;20235;-81
2022/05/08 08:00:57;;;;;;;5.72;5.32;;;15.40;99.90;;;;;;5020882;28;20576;-79
2022/05/08 08:03:24;;;;;;;6.15;5.65;;;15.50;99.90;;;;;;5026978;28;20242;-79
2022/05/08 08:05:53;;;;;;;5.63;5.22;;;15.70;99.90;;;;;;5032192;28;20208;-78
2022/05/08 08:08:23;;;;;;;6.30;5.70;;;15.80;99.90;;;;;;5028739;28;20306;-80
2022/05/08 08:10:52;;;;;;;6.38;5.90;;;15.90;99.90;;;;;;5032930;28;20188;-78
2022/05/08 08:13:19;;;;;;;6.40;5.80;;;15.90;99.90;;;;;;5036093;28;20243;-77
2022/05/08 08:15:47;;;;;;;6.88;6.35;;;15.90;99.90;;;;;;5026234;28;20682;-77
2022/05/08 08:18:14;;;;;;;6.70;6.20;;;15.90;99.90;;;;;;5035406;28;20538;-78
2022/05/08 08:20:42;;;;;;;5.95;5.45;;;16.00;99.90;;;;;;5031700;28;20194;-78
2022/05/08 08:23:10;;;;;;;6.93;6.32;;;16.00;99.90;;;;;;5034376;28;20226;-78
2022/05/08 08:25:38;;;;;;;6.60;6.00;;;16.00;99.90;;;;;;5030702;28;20203;-79
2022/05/08 08:28:05;;;;;;;6.18;5.75;;;16.00;99.90;;;;;;5032207;28;20233;-79
2022/05/08 08:30:32;;;;;;;7.28;6.68;;;16.10;99.90;;;;;;5030771;28;20187;-77
2022/05/08 08:33:00;;;;;;;5.97;5.57;;;16.10;99.90;;;;;;5034842;28;20337;-78
2022/05/08 08:35:27;;;;;;;6.10;5.60;;;16.10;99.90;;;;;;5032356;28;20197;-77
2022/05/08 08:37:55;;;;;;;5.63;5.22;;;16.20;99.90;;;;;;5032926;28;20231;-78
2022/05/08 08:40:24;;;;;;;6.28;5.78;;;16.20;99.90;;;;;;5036065;28;20733;-77
2022/05/08 08:42:51;;;;;;;7.38;5.40;;;16.20;99.90;;;;;;5034525;28;20218;-77
2022/05/08 08:48:06;;;;;;;5.90;5.50;;;16.10;99.90;;;;;;5036066;28;20221;-79
2022/05/08 08:50:35;;;;;;;6.20;5.70;;;16.00;99.90;;;;;;5034045;28;20652;-78
2022/05/08 08:53:03;;;;;;;4.65;4.35;;;16.00;99.90;;;;;;5031415;28;20215;-80
2022/05/08 08:55:33;;;;;;;5.20;4.80;;;16.10;99.90;;;;;;5034959;28;20203;-79
2022/05/08 08:58:00;;;;;;;5.82;5.35;;;16.10;99.90;;;;;;5025916;28;20226;-82
2022/05/08 09:00:27;;;;;;;5.90;5.47;;;16.20;99.90;;;;;;5020320;28;20222;-79
2022/05/08 09:02:55;;;;;;;5.90;5.40;;;16.20;99.90;;;;;;5029526;28;20216;-79
2022/05/08 09:05:24;;;;;;;5.53;5.13;;;16.20;99.90;;;;;;5034311;28;20190;-78
2022/05/08 09:07:53;;;;;;;6.07;5.68;;;16.30;99.90;;;;;;5028403;28;20299;-76
2022/05/08 09:10:23;;;;;;;5.43;5.03;;;16.30;99.90;;;;;;5029976;28;20223;-78
2022/05/08 09:13:11;;;;;;;4.78;4.45;;;16.40;99.90;;;;;;5035585;28;20227;-78
2022/05/08 09:15:39;;;;;;;5.65;5.20;;;16.40;99.90;;;;;;5032898;28;20199;-76
2022/05/08 09:18:08;;;;;;;5.30;4.90;;;16.40;99.90;;;;;;5028514;28;20221;-78
2022/05/08 09:20:37;;;;;;;5.40;5.00;;;16.50;99.90;;;;;;5033232;28;20212;-79
2022/05/08 09:23:10;;;;;;;5.43;4.93;;;16.60;99.90;;;;;;5028068;28;20227;-79
2022/05/08 09:25:59;;;;;;;5.10;4.70;;;16.70;99.90;;;;;;5025825;28;20203;-81
2022/05/08 09:28:28;;;;;;;4.60;4.30;;;17.10;99.90;;;;;;5031529;28;20227;-78
2022/05/08 09:30:58;;;;;;;5.20;4.80;;;17.40;99.90;;;;;;5027003;28;20215;-79
2022/05/08 09:33:27;;;;;;;4.72;4.43;;;17.50;99.90;;;;;;5037151;28;20230;-78
2022/05/08 09:35:54;;;;;;;4.35;4.05;;;17.60;99.90;;;;;;5033996;28;20200;-78
2022/05/08 09:38:21;;;;;;;4.80;4.38;;;17.80;99.90;;;;;;5030259;28;20223;-78
2022/05/08 09:41:06;;;;;;;4.82;4.43;;;17.80;99.90;;;;;;5036463;28;20227;-77
2022/05/08 09:43:35;;;;;;;4.68;4.00;;;17.80;99.90;;;;;;5042265;28;20231;-80
2022/05/08 09:46:04;;;;;;;4.70;4.40;;;17.80;99.90;;;;;;5046767;28;20196;-79
2022/05/08 09:48:34;;;;;;;4.15;3.85;;;18.20;99.90;;;;;;5043146;28;20229;-79
2022/05/08 09:51:02;;;;;;;4.32;3.92;;;18.30;99.90;;;;;;5048307;28;20210;-81
2022/05/08 09:53:31;;;;;;;3.90;3.60;;;18.10;99.90;;;;;;5053853;28;20212;-79
2022/05/08 09:55:59;;;;;;;4.53;4.15;;;18.10;99.90;;;;;;5049279;28;20218;-82
2022/05/08 09:58:27;;;;;;;5.00;4.60;;;17.80;99.90;;;;;;5045408;28;20588;-79
2022/05/08 10:00:56;;;;;;;4.70;4.30;;;17.60;99.90;;;;;;5046431;28;20273;-79
2022/05/08 10:03:23;;;;;;;4.30;4.00;;;17.40;99.90;;;;;;5033825;28;20219;-80
2022/05/08 10:05:51;;;;;;;4.25;3.95;;;17.30;99.90;;;;;;5046198;28;20202;-80
2022/05/08 10:08:21;;;;;;;4.22;3.92;;;17.30;99.90;;;;;;5042610;28;20532;-79
2022/05/08 10:13:57;;;;;;;3.33;3.13;;;17.30;99.90;;;;;;5039481;28;20304;-80
2022/05/08 10:16:47;;;;;;;4.10;3.80;;;17.40;99.90;;;;;;5046221;28;20252;-80
2022/05/08 10:19:54;;;;;;;3.70;3.40;;;17.50;99.90;;;;;;5042768;28;20222;-83
2022/05/08 10:22:22;;;;;;;3.25;3.05;;;17.60;99.90;;;;;;5035735;28;20227;-79
2022/05/08 10:24:56;;;;;;;3.42;3.22;;;17.70;99.90;;;;;;5024802;28;20208;-79
2022/05/08 10:27:25;;;;;;;3.97;3.67;;;17.70;99.90;;;;;;5027465;28;20231;-80
2022/05/08 10:30:29;;;;;;;3.72;3.42;;;17.60;99.90;;;;;;5021816;28;20280;-80
2022/05/08 10:32:58;;;;;;;3.35;3.05;;;17.50;99.90;;;;;;5022802;28;20243;-78
2022/05/08 10:35:27;;;;;;;3.20;2.90;;;17.40;99.90;;;;;;5027565;28;20199;-80
2022/05/08 10:38:30;;;;;;;3.25;3.05;;;17.30;99.90;;;;;;5025049;28;20707;-80
2022/05/08 10:40:57;;;;;;;3.97;3.67;;;17.40;99.90;;;;;;5017705;28;20659;-80
2022/05/08 10:45:43;;;;;;;3.50;3.17;;;17.60;99.90;;;;;;5127051;27;20295;-76
2022/05/08 10:48:15;;;;;;;4.40;4.00;;;18.10;99.90;;;;;;5107423;27;20280;-76
2022/05/08 10:50:44;;;;;;;4.70;4.40;;;18.10;99.90;;;;;;5104597;28;20196;-76
2022/05/08 10:53:25;;;;;;;5.78;5.28;;;17.90;99.90;;;;;;5107680;27;20213;-76
2022/05/08 10:55:54;;;;;;;6.30;5.25;;;17.70;99.90;;;;;;5101783;28;20740;-77
2022/05/08 10:58:21;;;;;;;6.28;5.75;;;17.40;99.90;;;;;;5106220;27;20217;-76
2022/05/08 11:00:49;;;;;;;6.18;5.68;;;17.20;99.90;;;;;;5110449;28;20261;-76
2022/05/08 11:03:22;;;;;;;5.68;5.28;;;17.10;99.90;;;;;;5111187;27;20224;-76
2022/05/08 11:05:49;;;;;;;5.20;4.80;;;17.00;99.90;;;;;;5109805;28;20221;-76
2022/05/08 11:08:23;;;;;;;5.43;5.03;;;17.00;99.90;;;;;;5106130;27;20556;-76
2022/05/08 11:10:58;;;;;;;4.30;4.00;;;17.00;99.90;;;;;;5112699;28;20192;-78
2022/05/08 11:13:26;;;;;;;4.22;3.83;;;16.90;99.90;;;;;;5117491;27;20852;-76
2022/05/08 11:15:55;;;;;;;4.15;3.85;;;16.80;99.90;;;;;;5117258;28;20228;-77
2022/05/08 11:18:24;;;;;;;4.18;3.85;;;16.80;99.90;;;;;;5109151;27;20676;-76
2022/05/08 11:20:53;;;;;;;4.65;4.35;;;16.80;99.90;;;;;;5111280;28;20246;-77
2022/05/08 11:23:22;;;;;;;4.57;4.18;;;16.80;99.90;;;;;;5108891;27;20228;-77
2022/05/08 11:25:52;;;;;;;4.53;4.15;;;16.90;99.90;;;;;;5106394;28;20284;-76
2022/05/08 11:28:21;;;;;;;4.85;4.45;;;16.90;99.90;;;;;;5112227;28;20224;-76
2022/05/08 11:30:50;;;;;;;5.07;4.65;;;17.00;99.90;;;;;;5110599;28;20189;-76
2022/05/08 11:36:06;;;;;;;4.55;4.25;;;17.00;99.90;;;;;;5111220;28;20227;-77
2022/05/08 11:38:41;;;;;;;4.55;4.25;;;17.00;99.90;;;;;;5115160;28;20224;-77
2022/05/08 11:41:10;;;;;;;4.85;4.45;;;17.10;99.90;;;;;;5110726;28;20528;-77
2022/05/08 11:43:41;;;;;;;6.30;5.80;;;17.10;99.90;;;;;;5116107;27;20586;-76
2022/05/08 11:46:08;;;;;;;4.20;3.90;;;17.20;99.90;;;;;;5107620;28;20566;-77
2022/05/08 11:48:40;;;;;;;4.22;3.83;;;17.10;99.90;;;;;;5103219;28;20259;-76
2022/05/08 11:51:08;;;;;;;5.03;4.63;;;17.20;99.90;;;;;;5113059;28;20196;-76
2022/05/08 11:53:44;;;;;;;5.78;5.28;;;17.30;99.90;;;;;;5103414;28;20213;-76
2022/05/08 11:56:26;;;;;;;4.57;4.28;;;17.30;99.90;;;;;;5093632;28;20198;-76
2022/05/08 11:58:53;;;;;;;5.00;4.68;;;17.20;99.90;;;;;;5094585;28;20668;-76
2022/05/08 12:01:29;;;;;;;5.55;5.15;;;17.20;99.90;;;;;;5099583;28;20193;-76
2022/05/08 12:03:59;;;;;;;4.97;4.57;;;17.10;99.90;;;;;;5094198;28;20228;-75
2022/05/08 12:06:26;;;;;;;5.03;4.65;;;17.20;99.90;;;;;;5112180;28;20189;-75
2022/05/08 12:08:53;;;;;;;5.15;4.75;;;17.30;99.90;;;;;;5087127;28;20243;-76
2022/05/08 12:11:28;;;;;;;5.10;4.70;;;17.40;99.90;;;;;;5095988;28;20194;-76
2022/05/08 12:14:03;;;;;;;4.72;4.43;;;17.60;99.90;;;;;;5095063;28;20868;-76
2022/05/08 12:16:32;;;;;;;4.70;4.40;;;17.80;99.90;;;;;;5096134;28;20678;-75
2022/05/08 12:19:18;;;;;;;4.88;4.47;;;18.10;99.90;;;;;;5094035;28;20312;-75
2022/05/08 12:21:46;;;;;;;4.85;4.45;;;18.50;99.90;;;;;;5090738;28;20289;-75
2022/05/08 12:24:17;;;;;;;4.60;4.20;;;18.60;99.90;;;;;;5089091;28;20215;-75
2022/05/08 12:26:45;;;;;;;5.03;4.65;;;18.60;99.90;;;;;;5092410;28;20217;-76
2022/05/08 12:29:20;;;;;;;5.18;4.70;;;18.70;99.90;;;;;;5085844;28;20213;-76
2022/05/08 12:31:50;;;;;;;5.00;4.60;;;18.70;99.90;;;;;;5096244;28;20200;-76
2022/05/08 12:34:19;;;;;;;4.70;4.40;;;18.60;99.90;;;;;;5102232;28;20212;-76
2022/05/08 12:36:48;;;;;;;4.95;4.55;;;18.50;99.90;;;;;;5093759;28;20208;-76
2022/05/08 12:39:15;;;;;;;3.88;3.67;;;18.40;99.90;;;;;;5098461;28;20222;-76
2022/05/08 12:41:43;;;;;;;3.53;3.22;;;18.50;99.90;;;;;;5092688;28;20256;-75
2022/05/08 12:44:11;;;;;;;3.60;3.40;;;18.60;99.90;;;;;;5096074;28;20217;-76
2022/05/08 12:46:38;;;;;;;3.63;3.40;;;18.70;99.90;;;;;;5090710;28;20204;-76
2022/05/08 12:49:05;;;;;;;3.28;3.08;;;18.90;99.90;;;;;;5092593;28;20228;-76
2022/05/08 12:51:36;;;;;;;3.67;3.38;;;19.20;99.90;;;;;;5088604;28;20197;-76
2022/05/08 12:54:04;;;;;;;2.90;2.70;;;19.40;99.90;;;;;;5087689;28;20309;-77
2022/05/08 12:56:32;;;;;;;3.35;2.80;;;19.40;99.90;;;;;;5098515;28;20201;-76
2022/05/08 13:01:45;;;;;;;3.22;3.03;;;19.30;99.90;;;;;;5101019;28;20204;-76
2022/05/08 13:04:12;;;;;;;3.28;2.97;;;19.40;99.90;;;;;;5095918;28;20218;-76
2022/05/08 13:06:41;;;;;;;3.33;3.03;;;19.30;99.90;;;;;;5082916;28;20221;-76
2022/05/08 13:09:09;;;;;;;3.20;3.00;;;19.00;99.90;;;;;;5084516;28;20248;-76
2022/05/08 13:11:36;;;;;;;2.78;2.58;;;18.80;99.90;;;;;;5095287;28;20201;-77
2022/05/08 13:14:04;;;;;;;3.20;3.00;;;18.70;99.90;;;;;;5098629;27;20222;-77
2022/05/08 13:16:32;;;;;;;2.95;2.72;;;18.60;99.90;;;;;;5086448;28;20209;-77
2022/05/08 13:18:59;;;;;;;5.10;2.97;;;18.50;99.90;;;;;;5085571;28;20275;-77
2022/05/08 13:21:26;;;;;;;3.00;2.80;;;18.50;99.90;;;;;;5094385;28;20198;-76
2022/05/08 13:23:55;;;;;;;2.97;2.78;;;18.60;99.90;;;;;;5089079;28;20236;-76
2022/05/08 13:26:22;;;;;;;2.75;2.65;;;18.60;99.90;;;;;;5097822;28;20563;-76